sensor_id;sensor_type;location;lat;lon;timestamp;temperature;humidity
4795;DHT22;2411;47.060;15.064;2023-04-03T00:00:56;4.80;1.00
4795;DHT22;2411;47.060;15.064;2023-04-03T00:03:24;4.70;1.00
4795;DHT22;2411;47.060;15.064;2023-04-03T00:05:51;4.60;1.00
4795;DHT22;2411;47.060;15.064;2023-04-03T00:08:18;4.60;1.00
4795;DHT22;2411;47.060;15.064;2023-04-03T00:10:46;4.50;1.00
4795;DHT22;2411;47.060;15.064;2023-04-03T00:13:13;4.50;1.00
4795;DHT22;2411;47.060;15.064;2023-04-03T00:15:41;4.50;1.00
4795;DHT22;2411;47.060;15.064;2023-04-03T00:18:08;4.20;1.00
4795;DHT22;2411;47.060;15.064;2023-04-03T00:20:36;4.00;1.00
4795;DHT22;2411;47.060;15.064;2023-04-03T00:23:05;3.80;1.00
4795;DHT22;2411;47.060;15.064;2023-04-03T00:25:32;3.90;1.00
4795;DHT22;2411;47.060;15.064;2023-04-03T00:28:00;4.00;1.00
4795;DHT22;2411;47.060;15.064;2023-04-03T00:30:27;4.00;1.00
4795;DHT22;2411;47.060;15.064;2023-04-03T00:32:54;4.00;1.00
4795;DHT22;2411;47.060;15.064;2023-04-03T00:35:22;4.10;1.00
4795;DHT22;2411;47.060;15.064;2023-04-03T00:37:53;4.10;1.00
4795;DHT22;2411;47.060;15.064;2023-04-03T00:40:23;4.00;1.00
4795;DHT22;2411;47.060;15.064;2023-04-03T00:42:55;4.10;1.00
4795;DHT22;2411;47.060;15.064;2023-04-03T00:45:27;4.20;1.00
4795;DHT22;2411;47.060;15.064;2023-04-03T00:47:57;4.20;1.00
4795;DHT22;2411;47.060;15.064;2023-04-03T00:50:28;3.90;1.00
4795;DHT22;2411;47.060;15.064;2023-04-03T00:52:57;3.90;1.00
4795;DHT22;2411;47.060;15.064;2023-04-03T00:55:25;4.00;1.00
4795;DHT22;2411;47.060;15.064;2023-04-03T00:57:53;3.90;1.00
4795;DHT22;2411;47.060;15.064;2023-04-03T01:00:22;3.70;1.00
4795;DHT22;2411;47.060;15.064;2023-04-03T01:02:51;3.60;1.00
4795;DHT22;2411;47.060;15.064;2023-04-03T01:05:19;3.70;1.00
4795;DHT22;2411;47.060;15.064;2023-04-03T01:07:48;3.70;1.00
4795;DHT22;2411;47.060;15.064;2023-04-03T01:10:17;3.70;1.00
4795;DHT22;2411;47.060;15.064;2023-04-03T01:12:49;3.60;1.00
4795;DHT22;2411;47.060;15.064;2023-04-03T01:15:23;3.60;1.00
4795;DHT22;2411;47.060;15.064;2023-04-03T01:17:52;3.60;1.00
4795;DHT22;2411;47.060;15.064;2023-04-03T01:25:47;3.50;1.00
4795;DHT22;2411;47.060;15.064;2023-04-03T01:28:30;3.60;1.00
4795;DHT22;2411;47.060;15.064;2023-04-03T01:33:40;3.50;1.00
4795;DHT22;2411;47.060;15.064;2023-04-03T01:36:08;3.50;1.00
4795;DHT22;2411;47.060;15.064;2023-04-03T01:38:36;3.40;1.00
4795;DHT22;2411;47.060;15.064;2023-04-03T01:41:03;3.30;1.00
4795;DHT22;2411;47.060;15.064;2023-04-03T01:43:30;3.30;1.00
4795;DHT22;2411;47.060;15.064;2023-04-03T01:45:58;3.00;1.00
4795;DHT22;2411;47.060;15.064;2023-04-03T01:48:25;2.80;1.00
4795;DHT22;2411;47.060;15.064;2023-04-03T01:50:53;2.80;1.00
4795;DHT22;2411;47.060;15.064;2023-04-03T01:53:20;2.80;1.00
4795;DHT22;2411;47.060;15.064;2023-04-03T01:55:48;2.80;1.00
4795;DHT22;2411;47.060;15.064;2023-04-03T01:58:15;2.90;1.00
4795;DHT22;2411;47.060;15.064;2023-04-03T02:00:43;2.90;1.00
4795;DHT22;2411;47.060;15.064;2023-04-03T02:03:10;2.70;1.00
4795;DHT22;2411;47.060;15.064;2023-04-03T02:05:38;2.70;1.00
4795;DHT22;2411;47.060;15.064;2023-04-03T02:08:05;2.70;1.00
4795;DHT22;2411;47.060;15.064;2023-04-03T02:10:32;2.70;1.00
4795;DHT22;2411;47.060;15.064;2023-04-03T02:12:59;2.80;1.00
4795;DHT22;2411;47.060;15.064;2023-04-03T02:15:27;2.70;1.00
4795;DHT22;2411;47.060;15.064;2023-04-03T02:17:54;2.60;1.00
4795;DHT22;2411;47.060;15.064;2023-04-03T02:20:21;2.50;1.00
4795;DHT22;2411;47.060;15.064;2023-04-03T02:22:49;2.60;1.00
4795;DHT22;2411;47.060;15.064;2023-04-03T02:25:16;2.50;1.00
4795;DHT22;2411;47.060;15.064;2023-04-03T02:27:44;2.50;1.00
4795;DHT22;2411;47.060;15.064;2023-04-03T02:30:12;2.50;1.00
4795;DHT22;2411;47.060;15.064;2023-04-03T02:32:42;2.40;1.00
4795;DHT22;2411;47.060;15.064;2023-04-03T02:35:10;2.40;1.00
4795;DHT22;2411;47.060;15.064;2023-04-03T02:37:38;2.40;1.00
4795;DHT22;2411;47.060;15.064;2023-04-03T02:40:06;2.40;1.00
4795;DHT22;2411;47.060;15.064;2023-04-03T02:42:33;2.40;1.00
4795;DHT22;2411;47.060;15.064;2023-04-03T02:45:00;2.30;1.00
4795;DHT22;2411;47.060;15.064;2023-04-03T02:47:28;2.10;1.00
4795;DHT22;2411;47.060;15.064;2023-04-03T02:49:55;2.10;1.00
4795;DHT22;2411;47.060;15.064;2023-04-03T02:52:22;2.10;1.00
4795;DHT22;2411;47.060;15.064;2023-04-03T02:54:49;2.10;1.00
4795;DHT22;2411;47.060;15.064;2023-04-03T02:57:16;2.20;1.00
4795;DHT22;2411;47.060;15.064;2023-04-03T02:59:43;2.10;1.00
4795;DHT22;2411;47.060;15.064;2023-04-03T03:02:11;2.10;1.00
4795;DHT22;2411;47.060;15.064;2023-04-03T03:04:38;2.10;1.00
4795;DHT22;2411;47.060;15.064;2023-04-03T03:07:05;2.10;1.00
4795;DHT22;2411;47.060;15.064;2023-04-03T03:09:33;2.10;1.00
4795;DHT22;2411;47.060;15.064;2023-04-03T03:12:00;2.10;1.00
4795;DHT22;2411;47.060;15.064;2023-04-03T03:14:27;2.30;1.00
4795;DHT22;2411;47.060;15.064;2023-04-03T03:16:54;2.20;1.00
4795;DHT22;2411;47.060;15.064;2023-04-03T03:19:22;2.40;1.00
4795;DHT22;2411;47.060;15.064;2023-04-03T03:21:49;2.40;1.00
4795;DHT22;2411;47.060;15.064;2023-04-03T03:24:17;2.30;1.00
4795;DHT22;2411;47.060;15.064;2023-04-03T03:26:44;2.20;1.00
4795;DHT22;2411;47.060;15.064;2023-04-03T03:29:11;2.10;1.00
4795;DHT22;2411;47.060;15.064;2023-04-03T03:31:38;2.30;1.00
4795;DHT22;2411;47.060;15.064;2023-04-03T03:34:07;2.20;1.00
4795;DHT22;2411;47.060;15.064;2023-04-03T03:36:34;2.10;1.00
4795;DHT22;2411;47.060;15.064;2023-04-03T03:39:01;1.90;1.00
4795;DHT22;2411;47.060;15.064;2023-04-03T03:41:29;1.80;1.00
4795;DHT22;2411;47.060;15.064;2023-04-03T03:43:56;1.90;1.00
4795;DHT22;2411;47.060;15.064;2023-04-03T03:46:24;2.00;1.00
4795;DHT22;2411;47.060;15.064;2023-04-03T03:48:51;1.80;1.00
4795;DHT22;2411;47.060;15.064;2023-04-03T03:51:18;1.70;1.00
4795;DHT22;2411;47.060;15.064;2023-04-03T03:53:46;1.70;1.00
4795;DHT22;2411;47.060;15.064;2023-04-03T03:56:13;1.60;1.00
4795;DHT22;2411;47.060;15.064;2023-04-03T03:58:40;1.50;1.00
4795;DHT22;2411;47.060;15.064;2023-04-03T04:01:08;1.50;1.00
4795;DHT22;2411;47.060;15.064;2023-04-03T04:03:35;1.50;1.00
4795;DHT22;2411;47.060;15.064;2023-04-03T04:06:03;1.60;1.00
4795;DHT22;2411;47.060;15.064;2023-04-03T04:08:30;1.40;1.00
4795;DHT22;2411;47.060;15.064;2023-04-03T04:10:57;1.50;1.00
4795;DHT22;2411;47.060;15.064;2023-04-03T04:13:25;1.60;1.00
4795;DHT22;2411;47.060;15.064;2023-04-03T04:15:52;1.60;1.00
4795;DHT22;2411;47.060;15.064;2023-04-03T04:18:19;1.80;1.00
4795;DHT22;2411;47.060;15.064;2023-04-03T04:20:48;1.80;1.00
4795;DHT22;2411;47.060;15.064;2023-04-03T04:23:17;1.90;1.00
4795;DHT22;2411;47.060;15.064;2023-04-03T04:25:46;1.80;1.00
4795;DHT22;2411;47.060;15.064;2023-04-03T04:28:14;1.70;1.00
4795;DHT22;2411;47.060;15.064;2023-04-03T04:30:41;1.80;1.00
4795;DHT22;2411;47.060;15.064;2023-04-03T04:33:09;1.90;1.00
4795;DHT22;2411;47.060;15.064;2023-04-03T04:35:36;1.80;1.00
4795;DHT22;2411;47.060;15.064;2023-04-03T04:38:04;2.00;1.00
4795;DHT22;2411;47.060;15.064;2023-04-03T04:40:32;2.10;1.00
4795;DHT22;2411;47.060;15.064;2023-04-03T04:43:00;2.10;1.00
4795;DHT22;2411;47.060;15.064;2023-04-03T04:45:27;2.30;1.00
4795;DHT22;2411;47.060;15.064;2023-04-03T04:47:57;2.10;1.00
4795;DHT22;2411;47.060;15.064;2023-04-03T04:50:24;2.00;1.00
4795;DHT22;2411;47.060;15.064;2023-04-03T04:52:52;2.20;1.00
4795;DHT22;2411;47.060;15.064;2023-04-03T04:55:19;2.20;1.00
4795;DHT22;2411;47.060;15.064;2023-04-03T04:57:47;2.30;1.00
4795;DHT22;2411;47.060;15.064;2023-04-03T05:00:15;2.30;1.00
4795;DHT22;2411;47.060;15.064;2023-04-03T05:02:42;2.40;1.00
4795;DHT22;2411;47.060;15.064;2023-04-03T05:05:10;2.60;1.00
4795;DHT22;2411;47.060;15.064;2023-04-03T05:07:37;2.60;1.00
4795;DHT22;2411;47.060;15.064;2023-04-03T05:10:05;2.70;1.00
4795;DHT22;2411;47.060;15.064;2023-04-03T05:12:32;2.90;1.00
4795;DHT22;2411;47.060;15.064;2023-04-03T05:15:00;3.00;1.00
4795;DHT22;2411;47.060;15.064;2023-04-03T05:17:27;2.90;1.00
4795;DHT22;2411;47.060;15.064;2023-04-03T05:19:54;3.00;1.00
4795;DHT22;2411;47.060;15.064;2023-04-03T05:22:22;3.00;1.00
4795;DHT22;2411;47.060;15.064;2023-04-03T05:24:49;3.20;1.00
4795;DHT22;2411;47.060;15.064;2023-04-03T05:27:16;3.30;1.00
4795;DHT22;2411;47.060;15.064;2023-04-03T05:29:43;3.30;1.00
4795;DHT22;2411;47.060;15.064;2023-04-03T05:32:11;3.30;1.00
4795;DHT22;2411;47.060;15.064;2023-04-03T05:34:39;3.40;1.00
4795;DHT22;2411;47.060;15.064;2023-04-03T05:37:06;3.50;1.00
4795;DHT22;2411;47.060;15.064;2023-04-03T05:39:33;3.50;1.00
4795;DHT22;2411;47.060;15.064;2023-04-03T05:42:01;3.60;1.00
4795;DHT22;2411;47.060;15.064;2023-04-03T05:44:28;3.70;1.00
4795;DHT22;2411;47.060;15.064;2023-04-03T05:46:56;3.70;1.00
4795;DHT22;2411;47.060;15.064;2023-04-03T05:49:23;3.80;1.00
4795;DHT22;2411;47.060;15.064;2023-04-03T05:51:50;3.80;1.00
4795;DHT22;2411;47.060;15.064;2023-04-03T05:54:22;3.80;1.00
4795;DHT22;2411;47.060;15.064;2023-04-03T05:56:51;3.90;1.00
4795;DHT22;2411;47.060;15.064;2023-04-03T05:59:19;4.00;1.00
4795;DHT22;2411;47.060;15.064;2023-04-03T06:01:48;4.00;1.00
4795;DHT22;2411;47.060;15.064;2023-04-03T06:04:15;4.10;1.00
4795;DHT22;2411;47.060;15.064;2023-04-03T06:06:54;4.20;1.00
4795;DHT22;2411;47.060;15.064;2023-04-03T06:09:24;4.20;1.00
4795;DHT22;2411;47.060;15.064;2023-04-03T06:11:52;4.40;1.00
4795;DHT22;2411;47.060;15.064;2023-04-03T06:14:19;4.40;1.00
4795;DHT22;2411;47.060;15.064;2023-04-03T06:16:47;4.40;1.00
4795;DHT22;2411;47.060;15.064;2023-04-03T06:19:14;4.40;1.00
4795;DHT22;2411;47.060;15.064;2023-04-03T06:21:42;4.60;1.00
4795;DHT22;2411;47.060;15.064;2023-04-03T06:24:14;4.90;1.00
4795;DHT22;2411;47.060;15.064;2023-04-03T06:26:41;5.00;1.00
4795;DHT22;2411;47.060;15.064;2023-04-03T06:29:09;5.10;1.00
4795;DHT22;2411;47.060;15.064;2023-04-03T06:31:36;5.20;1.00
4795;DHT22;2411;47.060;15.064;2023-04-03T06:34:04;5.30;1.00
4795;DHT22;2411;47.060;15.064;2023-04-03T06:36:34;5.30;1.00
4795;DHT22;2411;47.060;15.064;2023-04-03T06:39:02;5.30;1.00
4795;DHT22;2411;47.060;15.064;2023-04-03T06:41:30;5.60;1.00
4795;DHT22;2411;47.060;15.064;2023-04-03T06:43:57;5.80;1.00
4795;DHT22;2411;47.060;15.064;2023-04-03T06:46:26;6.00;1.00
4795;DHT22;2411;47.060;15.064;2023-04-03T06:48:53;6.20;1.00
4795;DHT22;2411;47.060;15.064;2023-04-03T06:51:28;6.30;1.00
4795;DHT22;2411;47.060;15.064;2023-04-03T06:53:59;6.40;1.00
4795;DHT22;2411;47.060;15.064;2023-04-03T06:56:27;6.70;1.00
4795;DHT22;2411;47.060;15.064;2023-04-03T06:58:56;6.70;1.00
4795;DHT22;2411;47.060;15.064;2023-04-03T07:01:26;6.90;1.00
4795;DHT22;2411;47.060;15.064;2023-04-03T07:03:55;6.80;1.00
4795;DHT22;2411;47.060;15.064;2023-04-03T07:06:22;6.30;1.00
4795;DHT22;2411;47.060;15.064;2023-04-03T07:08:50;5.80;1.00
4795;DHT22;2411;47.060;15.064;2023-04-03T07:11:17;5.80;1.00
4795;DHT22;2411;47.060;15.064;2023-04-03T07:13:44;5.80;1.00
4795;DHT22;2411;47.060;15.064;2023-04-03T07:16:12;5.80;1.00
4795;DHT22;2411;47.060;15.064;2023-04-03T07:18:39;5.80;1.00
4795;DHT22;2411;47.060;15.064;2023-04-03T07:21:07;5.90;1.00
4795;DHT22;2411;47.060;15.064;2023-04-03T07:23:34;5.80;1.00
4795;DHT22;2411;47.060;15.064;2023-04-03T07:26:01;5.60;1.00
4795;DHT22;2411;47.060;15.064;2023-04-03T07:28:28;5.70;1.00
4795;DHT22;2411;47.060;15.064;2023-04-03T07:31:02;5.60;1.00
4795;DHT22;2411;47.060;15.064;2023-04-03T07:33:30;5.50;1.00
4795;DHT22;2411;47.060;15.064;2023-04-03T07:35:59;5.70;1.00
4795;DHT22;2411;47.060;15.064;2023-04-03T07:38:27;5.60;1.00
4795;DHT22;2411;47.060;15.064;2023-04-03T07:40:54;5.60;1.00
4795;DHT22;2411;47.060;15.064;2023-04-03T07:43:22;5.70;1.00
4795;DHT22;2411;47.060;15.064;2023-04-03T07:45:52;5.80;1.00
4795;DHT22;2411;47.060;15.064;2023-04-03T07:48:22;5.80;1.00
4795;DHT22;2411;47.060;15.064;2023-04-03T07:50:50;5.90;1.00
4795;DHT22;2411;47.060;15.064;2023-04-03T07:53:18;5.80;1.00
4795;DHT22;2411;47.060;15.064;2023-04-03T07:55:49;5.80;1.00
4795;DHT22;2411;47.060;15.064;2023-04-03T07:58:18;6.20;1.00
4795;DHT22;2411;47.060;15.064;2023-04-03T08:00:46;6.00;1.00
4795;DHT22;2411;47.060;15.064;2023-04-03T08:03:14;5.80;1.00
4795;DHT22;2411;47.060;15.064;2023-04-03T08:05:45;5.80;1.00
4795;DHT22;2411;47.060;15.064;2023-04-03T08:08:15;5.70;1.00
4795;DHT22;2411;47.060;15.064;2023-04-03T08:10:52;5.80;1.00
4795;DHT22;2411;47.060;15.064;2023-04-03T08:13:20;5.80;1.00
4795;DHT22;2411;47.060;15.064;2023-04-03T08:15:48;5.90;1.00
4795;DHT22;2411;47.060;15.064;2023-04-03T08:18:16;6.10;1.00
4795;DHT22;2411;47.060;15.064;2023-04-03T08:20:44;6.10;1.00
4795;DHT22;2411;47.060;15.064;2023-04-03T08:23:11;6.40;1.00
4795;DHT22;2411;47.060;15.064;2023-04-03T08:25:40;6.10;1.00
4795;DHT22;2411;47.060;15.064;2023-04-03T08:28:09;6.20;1.00
4795;DHT22;2411;47.060;15.064;2023-04-03T08:30:39;6.10;1.00
4795;DHT22;2411;47.060;15.064;2023-04-03T08:33:07;6.30;1.00
4795;DHT22;2411;47.060;15.064;2023-04-03T08:35:40;6.40;1.00
4795;DHT22;2411;47.060;15.064;2023-04-03T08:38:09;6.20;1.00
4795;DHT22;2411;47.060;15.064;2023-04-03T08:40:36;6.20;1.00
4795;DHT22;2411;47.060;15.064;2023-04-03T08:45:55;6.20;1.00
4795;DHT22;2411;47.060;15.064;2023-04-03T08:48:35;6.20;1.00
4795;DHT22;2411;47.060;15.064;2023-04-03T08:51:14;6.10;1.00
4795;DHT22;2411;47.060;15.064;2023-04-03T08:54:24;6.40;1.00
4795;DHT22;2411;47.060;15.064;2023-04-03T08:56:54;6.80;1.00
4795;DHT22;2411;47.060;15.064;2023-04-03T08:59:35;7.20;1.00
4795;DHT22;2411;47.060;15.064;2023-04-03T09:04:46;7.30;1.00
4795;DHT22;2411;47.060;15.064;2023-04-03T09:07:30;7.30;1.00
4795;DHT22;2411;47.060;15.064;2023-04-03T09:10:00;7.10;1.00
4795;DHT22;2411;47.060;15.064;2023-04-03T09:12:53;6.90;1.00
4795;DHT22;2411;47.060;15.064;2023-04-03T09:15:24;7.10;1.00
4795;DHT22;2411;47.060;15.064;2023-04-03T09:23:54;6.50;1.00
4795;DHT22;2411;47.060;15.064;2023-04-03T09:29:08;6.50;1.00
4795;DHT22;2411;47.060;15.064;2023-04-03T09:31:40;6.50;1.00
4795;DHT22;2411;47.060;15.064;2023-04-03T09:34:18;6.30;1.00
4795;DHT22;2411;47.060;15.064;2023-04-03T09:36:53;6.50;1.00
4795;DHT22;2411;47.060;15.064;2023-04-03T09:39:25;6.50;1.00
4795;DHT22;2411;47.060;15.064;2023-04-03T09:42:04;6.70;1.00
4795;DHT22;2411;47.060;15.064;2023-04-03T09:44:35;6.60;1.00
4795;DHT22;2411;47.060;15.064;2023-04-03T09:47:35;6.40;1.00
4795;DHT22;2411;47.060;15.064;2023-04-03T09:52:37;6.20;1.00
4795;DHT22;2411;47.060;15.064;2023-04-03T09:55:26;6.40;1.00
4795;DHT22;2411;47.060;15.064;2023-04-03T09:57:58;6.60;1.00
4795;DHT22;2411;47.060;15.064;2023-04-03T10:00:28;7.00;1.00
4795;DHT22;2411;47.060;15.064;2023-04-03T10:02:59;7.60;1.00
4795;DHT22;2411;47.060;15.064;2023-04-03T10:05:36;8.20;1.00
4795;DHT22;2411;47.060;15.064;2023-04-03T10:10:36;8.80;1.00
4795;DHT22;2411;47.060;15.064;2023-04-03T10:13:06;8.70;1.00
4795;DHT22;2411;47.060;15.064;2023-04-03T10:16:08;7.90;1.00
4795;DHT22;2411;47.060;15.064;2023-04-03T10:19:00;7.30;1.00
4795;DHT22;2411;47.060;15.064;2023-04-03T10:21:47;7.00;1.00
4795;DHT22;2411;47.060;15.064;2023-04-03T10:24:28;6.90;1.00
4795;DHT22;2411;47.060;15.064;2023-04-03T10:35:50;7.40;1.00
4795;DHT22;2411;47.060;15.064;2023-04-03T10:43:35;7.10;1.00
4795;DHT22;2411;47.060;15.064;2023-04-03T10:52:00;7.50;1.00
4795;DHT22;2411;47.060;15.064;2023-04-03T10:57:13;7.10;1.00
4795;DHT22;2411;47.060;15.064;2023-04-03T10:59:50;7.30;1.00
4795;DHT22;2411;47.060;15.064;2023-04-03T11:04:53;7.70;1.00
4795;DHT22;2411;47.060;15.064;2023-04-03T11:07:24;7.80;1.00
4795;DHT22;2411;47.060;15.064;2023-04-03T11:09:58;7.50;1.00
4795;DHT22;2411;47.060;15.064;2023-04-03T11:12:34;7.30;1.00
4795;DHT22;2411;47.060;15.064;2023-04-03T11:15:03;7.20;1.00
4795;DHT22;2411;47.060;15.064;2023-04-03T11:17:44;7.50;1.00
4795;DHT22;2411;47.060;15.064;2023-04-03T11:20:23;8.10;1.00
4795;DHT22;2411;47.060;15.064;2023-04-03T11:23:03;8.00;1.00
4795;DHT22;2411;47.060;15.064;2023-04-03T11:25:33;7.70;1.00
4795;DHT22;2411;47.060;15.064;2023-04-03T11:28:04;7.50;1.00
4795;DHT22;2411;47.060;15.064;2023-04-03T11:33:52;7.20;1.00
4795;DHT22;2411;47.060;15.064;2023-04-03T11:39:24;7.10;1.00
4795;DHT22;2411;47.060;15.064;2023-04-03T11:41:53;7.20;1.00
4795;DHT22;2411;47.060;15.064;2023-04-03T11:44:38;7.00;1.00
4795;DHT22;2411;47.060;15.064;2023-04-03T11:47:07;7.50;1.00
4795;DHT22;2411;47.060;15.064;2023-04-03T12:08:29;8.20;1.00
4795;DHT22;2411;47.060;15.064;2023-04-03T12:26:51;7.70;1.00
4795;DHT22;2411;47.060;15.064;2023-04-03T12:29:33;7.80;1.00
4795;DHT22;2411;47.060;15.064;2023-04-03T12:48:46;8.10;1.00
4795;DHT22;2411;47.060;15.064;2023-04-03T12:51:38;7.70;1.00
4795;DHT22;2411;47.060;15.064;2023-04-03T12:57:19;7.70;1.00
4795;DHT22;2411;47.060;15.064;2023-04-03T12:59:47;8.00;1.00
4795;DHT22;2411;47.060;15.064;2023-04-03T13:02:27;7.70;1.00
4795;DHT22;2411;47.060;15.064;2023-04-03T13:04:58;8.50;1.00
4795;DHT22;2411;47.060;15.064;2023-04-03T13:07:30;8.80;1.00
4795;DHT22;2411;47.060;15.064;2023-04-03T13:12:35;8.70;1.00
4795;DHT22;2411;47.060;15.064;2023-04-03T13:15:29;8.60;1.00
4795;DHT22;2411;47.060;15.064;2023-04-03T13:17:57;8.10;1.00
4795;DHT22;2411;47.060;15.064;2023-04-03T13:20:30;7.40;1.00
4795;DHT22;2411;47.060;15.064;2023-04-03T13:23:00;7.80;1.00
4795;DHT22;2411;47.060;15.064;2023-04-03T13:25:34;7.80;1.00
4795;DHT22;2411;47.060;15.064;2023-04-03T13:28:05;7.90;1.00
4795;DHT22;2411;47.060;15.064;2023-04-03T13:30:41;8.50;1.00
4795;DHT22;2411;47.060;15.064;2023-04-03T13:33:24;8.90;1.00
4795;DHT22;2411;47.060;15.064;2023-04-03T13:36:06;7.60;1.00
4795;DHT22;2411;47.060;15.064;2023-04-03T13:38:34;7.50;1.00
4795;DHT22;2411;47.060;15.064;2023-04-03T13:41:26;7.30;1.00
4795;DHT22;2411;47.060;15.064;2023-04-03T13:43:53;7.30;1.00
4795;DHT22;2411;47.060;15.064;2023-04-03T13:46:32;7.40;1.00
4795;DHT22;2411;47.060;15.064;2023-04-03T13:49:18;7.20;1.00
4795;DHT22;2411;47.060;15.064;2023-04-03T13:51:46;7.10;1.00
4795;DHT22;2411;47.060;15.064;2023-04-03T13:54:37;6.90;1.00
4795;DHT22;2411;47.060;15.064;2023-04-03T13:57:14;7.00;1.00
4795;DHT22;2411;47.060;15.064;2023-04-03T13:59:42;7.30;1.00
4795;DHT22;2411;47.060;15.064;2023-04-03T14:02:19;7.00;1.00
4795;DHT22;2411;47.060;15.064;2023-04-03T14:04:52;7.30;1.00
4795;DHT22;2411;47.060;15.064;2023-04-03T14:07:24;7.40;1.00
4795;DHT22;2411;47.060;15.064;2023-04-03T14:09:52;7.10;1.00
4795;DHT22;2411;47.060;15.064;2023-04-03T14:12:37;7.30;1.00
4795;DHT22;2411;47.060;15.064;2023-04-03T14:15:25;7.30;1.00
4795;DHT22;2411;47.060;15.064;2023-04-03T14:17:54;7.20;1.00
4795;DHT22;2411;47.060;15.064;2023-04-03T14:20:25;7.10;1.00
4795;DHT22;2411;47.060;15.064;2023-04-03T14:22:53;7.20;1.00
4795;DHT22;2411;47.060;15.064;2023-04-03T14:25:21;7.00;1.00
4795;DHT22;2411;47.060;15.064;2023-04-03T14:27:53;6.90;1.00
4795;DHT22;2411;47.060;15.064;2023-04-03T14:30:26;6.70;1.00
4795;DHT22;2411;47.060;15.064;2023-04-03T14:32:54;6.50;1.00
4795;DHT22;2411;47.060;15.064;2023-04-03T14:35:23;6.60;1.00
4795;DHT22;2411;47.060;15.064;2023-04-03T14:37:53;6.50;1.00
4795;DHT22;2411;47.060;15.064;2023-04-03T14:40:26;6.50;1.00
4795;DHT22;2411;47.060;15.064;2023-04-03T14:42:54;6.30;1.00
4795;DHT22;2411;47.060;15.064;2023-04-03T14:45:23;6.20;1.00
4795;DHT22;2411;47.060;15.064;2023-04-03T14:47:53;6.20;1.00
4795;DHT22;2411;47.060;15.064;2023-04-03T14:50:26;6.30;1.00
4795;DHT22;2411;47.060;15.064;2023-04-03T14:52:57;6.40;1.00
4795;DHT22;2411;47.060;15.064;2023-04-03T14:55:25;6.50;1.00
4795;DHT22;2411;47.060;15.064;2023-04-03T14:57:53;6.70;1.00
4795;DHT22;2411;47.060;15.064;2023-04-03T15:00:21;7.00;1.00
4795;DHT22;2411;47.060;15.064;2023-04-03T15:02:49;7.30;1.00
4795;DHT22;2411;47.060;15.064;2023-04-03T15:05:17;7.10;1.00
4795;DHT22;2411;47.060;15.064;2023-04-03T15:07:55;7.30;1.00
4795;DHT22;2411;47.060;15.064;2023-04-03T15:10:28;7.00;1.00
4795;DHT22;2411;47.060;15.064;2023-04-03T15:12:56;7.20;1.00
4795;DHT22;2411;47.060;15.064;2023-04-03T15:15:24;7.10;1.00
4795;DHT22;2411;47.060;15.064;2023-04-03T15:17:54;6.90;1.00
4795;DHT22;2411;47.060;15.064;2023-04-03T15:20:25;6.50;1.00
4795;DHT22;2411;47.060;15.064;2023-04-03T15:22:53;6.60;1.00
4795;DHT22;2411;47.060;15.064;2023-04-03T15:25:23;7.00;1.00
4795;DHT22;2411;47.060;15.064;2023-04-03T15:27:53;6.80;1.00
4795;DHT22;2411;47.060;15.064;2023-04-03T15:30:21;6.90;1.00
4795;DHT22;2411;47.060;15.064;2023-04-03T15:32:49;7.10;1.00
4795;DHT22;2411;47.060;15.064;2023-04-03T15:35:16;6.90;1.00
4795;DHT22;2411;47.060;15.064;2023-04-03T15:37:44;7.10;1.00
4795;DHT22;2411;47.060;15.064;2023-04-03T15:40:13;6.70;1.00
4795;DHT22;2411;47.060;15.064;2023-04-03T15:42:40;6.80;1.00
4795;DHT22;2411;47.060;15.064;2023-04-03T15:45:08;6.60;1.00
4795;DHT22;2411;47.060;15.064;2023-04-03T15:47:35;6.70;1.00
4795;DHT22;2411;47.060;15.064;2023-04-03T15:50:03;6.80;1.00
4795;DHT22;2411;47.060;15.064;2023-04-03T15:52:34;6.80;1.00
4795;DHT22;2411;47.060;15.064;2023-04-03T15:55:01;6.80;1.00
4795;DHT22;2411;47.060;15.064;2023-04-03T15:57:28;6.80;1.00
4795;DHT22;2411;47.060;15.064;2023-04-03T16:00:01;6.70;1.00
4795;DHT22;2411;47.060;15.064;2023-04-03T16:02:28;6.60;1.00
4795;DHT22;2411;47.060;15.064;2023-04-03T16:04:55;6.50;1.00
4795;DHT22;2411;47.060;15.064;2023-04-03T16:07:23;6.60;1.00
4795;DHT22;2411;47.060;15.064;2023-04-03T16:09:50;6.80;1.00
4795;DHT22;2411;47.060;15.064;2023-04-03T16:12:18;7.20;1.00
4795;DHT22;2411;47.060;15.064;2023-04-03T16:14:45;7.80;1.00
4795;DHT22;2411;47.060;15.064;2023-04-03T16:17:13;7.80;1.00
4795;DHT22;2411;47.060;15.064;2023-04-03T16:19:40;7.90;1.00
4795;DHT22;2411;47.060;15.064;2023-04-03T16:22:08;8.20;1.00
4795;DHT22;2411;47.060;15.064;2023-04-03T16:24:35;8.20;1.00
4795;DHT22;2411;47.060;15.064;2023-04-03T16:27:02;8.90;1.00
4795;DHT22;2411;47.060;15.064;2023-04-03T16:29:30;8.90;1.00
4795;DHT22;2411;47.060;15.064;2023-04-03T16:31:58;9.50;1.00
4795;DHT22;2411;47.060;15.064;2023-04-03T16:34:26;9.40;1.00
4795;DHT22;2411;47.060;15.064;2023-04-03T16:36:54;10.00;1.00
4795;DHT22;2411;47.060;15.064;2023-04-03T16:39:21;10.10;1.00
4795;DHT22;2411;47.060;15.064;2023-04-03T16:41:48;10.10;1.00
4795;DHT22;2411;47.060;15.064;2023-04-03T16:44:16;10.10;1.00
4795;DHT22;2411;47.060;15.064;2023-04-03T16:46:43;9.50;1.00
4795;DHT22;2411;47.060;15.064;2023-04-03T16:49:13;8.80;1.00
4795;DHT22;2411;47.060;15.064;2023-04-03T16:51:40;7.80;1.00
4795;DHT22;2411;47.060;15.064;2023-04-03T16:54:09;7.10;1.00
4795;DHT22;2411;47.060;15.064;2023-04-03T16:56:38;6.20;1.00
4795;DHT22;2411;47.060;15.064;2023-04-03T16:59:06;5.80;1.00
4795;DHT22;2411;47.060;15.064;2023-04-03T17:01:34;5.60;1.00
4795;DHT22;2411;47.060;15.064;2023-04-03T17:04:01;5.50;1.00
4795;DHT22;2411;47.060;15.064;2023-04-03T17:06:29;5.30;1.00
4795;DHT22;2411;47.060;15.064;2023-04-03T17:08:56;5.10;1.00
4795;DHT22;2411;47.060;15.064;2023-04-03T17:11:24;5.10;1.00
4795;DHT22;2411;47.060;15.064;2023-04-03T17:13:52;5.00;1.00
4795;DHT22;2411;47.060;15.064;2023-04-03T17:16:20;4.80;1.00
4795;DHT22;2411;47.060;15.064;2023-04-03T17:18:47;4.80;1.00
4795;DHT22;2411;47.060;15.064;2023-04-03T17:21:15;4.80;1.00
4795;DHT22;2411;47.060;15.064;2023-04-03T17:23:46;4.70;1.00
4795;DHT22;2411;47.060;15.064;2023-04-03T17:26:14;4.60;1.00
4795;DHT22;2411;47.060;15.064;2023-04-03T17:28:41;4.50;1.00
4795;DHT22;2411;47.060;15.064;2023-04-03T17:31:11;4.50;1.00
4795;DHT22;2411;47.060;15.064;2023-04-03T17:33:38;4.40;1.00
4795;DHT22;2411;47.060;15.064;2023-04-03T17:36:06;4.30;1.00
4795;DHT22;2411;47.060;15.064;2023-04-03T17:38:34;4.30;1.00
4795;DHT22;2411;47.060;15.064;2023-04-03T17:41:05;4.10;1.00
4795;DHT22;2411;47.060;15.064;2023-04-03T17:43:33;4.10;1.00
4795;DHT22;2411;47.060;15.064;2023-04-03T17:46:02;4.00;1.00
4795;DHT22;2411;47.060;15.064;2023-04-03T17:48:31;4.00;1.00
4795;DHT22;2411;47.060;15.064;2023-04-03T17:51:03;4.00;1.00
4795;DHT22;2411;47.060;15.064;2023-04-03T17:53:31;3.90;1.00
4795;DHT22;2411;47.060;15.064;2023-04-03T17:56:04;3.90;1.00
4795;DHT22;2411;47.060;15.064;2023-04-03T17:58:31;3.90;1.00
4795;DHT22;2411;47.060;15.064;2023-04-03T18:01:02;3.90;1.00
4795;DHT22;2411;47.060;15.064;2023-04-03T18:03:33;3.90;1.00
4795;DHT22;2411;47.060;15.064;2023-04-03T18:06:05;3.80;1.00
4795;DHT22;2411;47.060;15.064;2023-04-03T18:08:39;3.70;1.00
4795;DHT22;2411;47.060;15.064;2023-04-03T18:11:19;3.70;1.00
4795;DHT22;2411;47.060;15.064;2023-04-03T18:13:48;3.70;1.00
4795;DHT22;2411;47.060;15.064;2023-04-03T18:16:15;3.60;1.00
4795;DHT22;2411;47.060;15.064;2023-04-03T18:18:43;3.60;1.00
4795;DHT22;2411;47.060;15.064;2023-04-03T18:21:12;3.50;1.00
4795;DHT22;2411;47.060;15.064;2023-04-03T18:23:43;3.50;1.00
4795;DHT22;2411;47.060;15.064;2023-04-03T18:26:14;3.50;1.00
4795;DHT22;2411;47.060;15.064;2023-04-03T18:28:49;3.50;1.00
4795;DHT22;2411;47.060;15.064;2023-04-03T18:31:19;3.40;1.00